sensor_id;sensor_type;location;lat;lon;timestamp;pressure;altitude;pressure_sealevel;temperature;humidity
36354;BME280;22383;51.114;13.666;2023-09-18T00:00:46;69251.69;;;18.64;100.00
36354;BME280;22383;51.114;13.666;2023-09-18T00:03:21;69256.09;;;18.66;100.00
36354;BME280;22383;51.114;13.666;2023-09-18T00:05:52;69248.13;;;18.59;100.00
36354;BME280;22383;51.114;13.666;2023-09-18T00:08:20;69252.44;;;18.67;100.00
36354;BME280;22383;51.114;13.666;2023-09-18T00:10:51;69254.53;;;18.67;100.00
36354;BME280;22383;51.114;13.666;2023-09-18T00:13:19;69253.22;;;18.63;100.00
36354;BME280;22383;51.114;13.666;2023-09-18T00:15:46;69242.00;;;18.56;100.00
36354;BME280;22383;51.114;13.666;2023-09-18T00:18:16;69243.72;;;18.57;100.00
36354;BME280;22383;51.114;13.666;2023-09-18T00:20:44;69247.53;;;18.58;100.00
36354;BME280;22383;51.114;13.666;2023-09-18T00:23:13;69231.34;;;18.48;100.00
36354;BME280;22383;51.114;13.666;2023-09-18T00:25:42;69237.06;;;18.54;100.00
36354;BME280;22383;51.114;13.666;2023-09-18T00:28:09;69235.16;;;18.49;100.00
36354;BME280;22383;51.114;13.666;2023-09-18T00:30:38;69227.34;;;18.45;100.00
36354;BME280;22383;51.114;13.666;2023-09-18T00:33:09;69225.09;;;18.43;100.00
36354;BME280;22383;51.114;13.666;2023-09-18T00:35:36;69233.28;;;18.45;100.00
36354;BME280;22383;51.114;13.666;2023-09-18T00:38:04;69236.31;;;18.50;100.00
36354;BME280;22383;51.114;13.666;2023-09-18T00:40:33;69233.47;;;18.48;100.00
36354;BME280;22383;51.114;13.666;2023-09-18T00:43:00;69224.50;;;18.42;100.00
36354;BME280;22383;51.114;13.666;2023-09-18T00:45:27;69224.50;;;18.42;100.00
36354;BME280;22383;51.114;13.666;2023-09-18T00:47:55;69236.31;;;18.50;100.00
36354;BME280;22383;51.114;13.666;2023-09-18T00:50:22;69223.53;;;18.44;100.00
36354;BME280;22383;51.114;13.666;2023-09-18T00:52:49;69221.47;;;18.37;100.00
36354;BME280;22383;51.114;13.666;2023-09-18T00:55:17;69220.91;;;18.37;100.00
36354;BME280;22383;51.114;13.666;2023-09-18T00:57:45;69217.09;;;18.36;100.00
36354;BME280;22383;51.114;13.666;2023-09-18T01:00:13;69216.75;;;18.30;100.00
36354;BME280;22383;51.114;13.666;2023-09-18T01:02:45;69195.59;;;18.19;100.00
36354;BME280;22383;51.114;13.666;2023-09-18T01:05:12;69205.91;;;18.21;100.00
36354;BME280;22383;51.114;13.666;2023-09-18T01:07:40;69194.28;;;18.15;100.00
36354;BME280;22383;51.114;13.666;2023-09-18T01:10:08;69195.41;;;18.16;100.00
36354;BME280;22383;51.114;13.666;2023-09-18T01:12:49;69196.56;;;18.17;100.00
36354;BME280;22383;51.114;13.666;2023-09-18T01:15:36;69193.53;;;18.12;100.00
36354;BME280;22383;51.114;13.666;2023-09-18T01:18:10;69194.50;;;18.10;100.00
36354;BME280;22383;51.114;13.666;2023-09-18T01:20:37;69199.81;;;18.18;100.00
36354;BME280;22383;51.114;13.666;2023-09-18T01:23:05;69203.41;;;18.23;100.00
36354;BME280;22383;51.114;13.666;2023-09-18T01:25:32;69188.22;;;18.05;100.00
36354;BME280;22383;51.114;13.666;2023-09-18T01:28:01;69185.00;;;18.04;100.00
36354;BME280;22383;51.114;13.666;2023-09-18T01:30:28;69181.56;;;18.01;100.00
36354;BME280;22383;51.114;13.666;2023-09-18T01:32:58;69180.03;;;18.02;100.00
36354;BME280;22383;51.114;13.666;2023-09-18T01:35:26;69177.41;;;17.95;100.00
36354;BME280;22383;51.114;13.666;2023-09-18T01:37:59;69178.72;;;17.99;100.00
36354;BME280;22383;51.114;13.666;2023-09-18T01:40:26;69178.16;;;17.98;100.00
36354;BME280;22383;51.114;13.666;2023-09-18T01:42:54;69177.41;;;17.95;100.00
36354;BME280;22383;51.114;13.666;2023-09-18T01:45:21;69184.03;;;18.06;100.00
36354;BME280;22383;51.114;13.666;2023-09-18T01:47:48;69179.09;;;17.97;100.00
36354;BME280;22383;51.114;13.666;2023-09-18T01:50:16;69163.88;;;17.85;100.00
36354;BME280;22383;51.114;13.666;2023-09-18T01:52:43;69182.53;;;18.00;100.00
36354;BME280;22383;51.114;13.666;2023-09-18T01:55:10;69185.16;;;18.07;100.00
36354;BME280;22383;51.114;13.666;2023-09-18T01:57:38;69169.00;;;17.90;100.00
36354;BME280;22383;51.114;13.666;2023-09-18T02:00:06;69167.13;;;17.86;100.00
36354;BME280;22383;51.114;13.666;2023-09-18T02:02:38;69162.34;;;17.86;100.00
36354;BME280;22383;51.114;13.666;2023-09-18T02:05:23;69148.28;;;17.76;100.00
36354;BME280;22383;51.114;13.666;2023-09-18T02:07:51;69151.31;;;17.74;100.00
36354;BME280;22383;51.114;13.666;2023-09-18T02:10:19;69143.94;;;17.67;100.00
36354;BME280;22383;51.114;13.666;2023-09-18T02:12:46;69140.50;;;17.64;100.00
36354;BME280;22383;51.114;13.666;2023-09-18T02:15:13;69134.97;;;17.62;100.00
36354;BME280;22383;51.114;13.666;2023-09-18T02:17:43;69135.97;;;17.60;100.00
36354;BME280;22383;51.114;13.666;2023-09-18T02:20:13;69102.34;;;17.54;100.00
36354;BME280;22383;51.114;13.666;2023-09-18T02:22:40;69139.19;;;17.61;100.00
36354;BME280;22383;51.114;13.666;2023-09-18T02:25:08;69124.38;;;17.47;100.00
36354;BME280;22383;51.114;13.666;2023-09-18T02:27:35;69114.88;;;17.41;100.00
36354;BME280;22383;51.114;13.666;2023-09-18T02:30:03;69107.06;;;17.36;100.00
36354;BME280;22383;51.114;13.666;2023-09-18T02:32:30;69103.81;;;17.36;100.00
36354;BME280;22383;51.114;13.666;2023-09-18T02:34:58;69090.41;;;17.43;100.00
36354;BME280;22383;51.114;13.666;2023-09-18T02:37:25;69116.75;;;17.45;100.00
36354;BME280;22383;51.114;13.666;2023-09-18T02:39:53;69120.72;;;17.49;100.00
36354;BME280;22383;51.114;13.666;2023-09-18T02:42:21;69111.59;;;17.41;100.00
36354;BME280;22383;51.114;13.666;2023-09-18T02:44:48;69115.03;;;17.44;100.00
36354;BME280;22383;51.114;13.666;2023-09-18T02:47:15;69102.50;;;17.32;100.00
36354;BME280;22383;51.114;13.666;2023-09-18T02:49:43;69098.34;;;17.26;100.00
36354;BME280;22383;51.114;13.666;2023-09-18T02:52:10;69104.44;;;17.29;100.00
36354;BME280;22383;51.114;13.666;2023-09-18T02:54:37;69105.75;;;17.33;100.00
36354;BME280;22383;51.114;13.666;2023-09-18T02:57:04;69107.22;;;17.39;100.00
36354;BME280;22383;51.114;13.666;2023-09-18T02:59:31;69109.16;;;17.36;100.00
36354;BME280;22383;51.114;13.666;2023-09-18T03:01:59;69103.06;;;17.33;100.00
36354;BME280;22383;51.114;13.666;2023-09-18T03:04:26;69112.41;;;17.36;100.00
36354;BME280;22383;51.114;13.666;2023-09-18T03:06:54;69110.88;;;17.37;100.00
36354;BME280;22383;51.114;13.666;2023-09-18T03:09:21;69104.03;;;17.31;100.00
36354;BME280;22383;51.114;13.666;2023-09-18T03:11:48;69098.53;;;17.29;100.00
36354;BME280;22383;51.114;13.666;2023-09-18T03:14:16;69081.41;;;17.13;100.00
36354;BME280;22383;51.114;13.666;2023-09-18T03:16:43;69084.66;;;17.14;100.00
36354;BME280;22383;51.114;13.666;2023-09-18T03:19:11;69081.81;;;17.11;100.00
36354;BME280;22383;51.114;13.666;2023-09-18T03:21:38;69090.75;;;17.17;100.00
36354;BME280;22383;51.114;13.666;2023-09-18T03:24:06;69086.38;;;17.15;100.00
36354;BME280;22383;51.114;13.666;2023-09-18T03:26:34;69083.69;;;17.15;100.00
36354;BME280;22383;51.114;13.666;2023-09-18T03:29:02;69085.41;;;17.17;100.00
36354;BME280;22383;51.114;13.666;2023-09-18T03:31:30;69080.84;;;17.13;100.00
36354;BME280;22383;51.114;13.666;2023-09-18T03:33:57;69084.66;;;17.14;100.00
36354;BME280;22383;51.114;13.666;2023-09-18T03:36:26;69087.13;;;17.18;100.00
36354;BME280;22383;51.114;13.666;2023-09-18T03:38:53;69092.22;;;17.23;100.00
36354;BME280;22383;51.114;13.666;2023-09-18T03:41:21;69095.50;;;17.24;100.00
36354;BME280;22383;51.114;13.666;2023-09-18T03:43:48;69094.13;;;17.27;100.00
36354;BME280;22383;51.114;13.666;2023-09-18T03:46:16;69094.69;;;17.28;100.00
36354;BME280;22383;51.114;13.666;2023-09-18T03:48:47;69095.50;;;17.24;100.00
36354;BME280;22383;51.114;13.666;2023-09-18T03:51:15;69089.97;;;17.21;100.00
36354;BME280;22383;51.114;13.666;2023-09-18T03:53:43;69081.41;;;17.13;100.00
36354;BME280;22383;51.114;13.666;2023-09-18T03:56:11;69078.56;;;17.11;100.00
36354;BME280;22383;51.114;13.666;2023-09-18T03:58:38;69069.47;;;17.03;100.00
36354;BME280;22383;51.114;13.666;2023-09-18T04:01:05;69064.31;;;16.98;100.00
36354;BME280;22383;51.114;13.666;2023-09-18T04:03:33;69061.31;;;16.93;100.00
36354;BME280;22383;51.114;13.666;2023-09-18T04:06:00;69064.31;;;16.98;100.00
36354;BME280;22383;51.114;13.666;2023-09-18T04:08:29;69070.59;;;17.04;100.00
36354;BME280;22383;51.114;13.666;2023-09-18T04:10:58;69093.44;;;17.17;100.00
36354;BME280;22383;51.114;13.666;2023-09-18T04:13:25;69080.84;;;17.13;100.00
36354;BME280;22383;51.114;13.666;2023-09-18T04:15:53;69070.03;;;17.03;100.00
36354;BME280;22383;51.114;13.666;2023-09-18T04:18:24;69046.53;;;17.04;100.00
36354;BME280;22383;51.114;13.666;2023-09-18T04:20:51;69071.94;;;17.00;100.00
36354;BME280;22383;51.114;13.666;2023-09-18T04:23:24;69073.84;;;17.04;100.00
36354;BME280;22383;51.114;13.666;2023-09-18T04:25:53;69087.53;;;17.16;100.00
36354;BME280;22383;51.114;13.666;2023-09-18T04:28:22;69082.94;;;17.12;100.00
36354;BME280;22383;51.114;13.666;2023-09-18T04:30:50;69074.56;;;17.07;100.00
36354;BME280;22383;51.114;13.666;2023-09-18T04:33:18;69079.53;;;17.09;100.00
36354;BME280;22383;51.114;13.666;2023-09-18T04:35:47;69086.94;;;17.16;100.00
36354;BME280;22383;51.114;13.666;2023-09-18T04:38:14;69089.97;;;17.21;100.00
36354;BME280;22383;51.114;13.666;2023-09-18T04:40:43;69097.19;;;17.25;100.00
36354;BME280;22383;51.114;13.666;2023-09-18T04:43:11;69097.78;;;17.26;100.00
36354;BME280;22383;51.114;13.666;2023-09-18T04:45:38;69101.56;;;17.27;100.00
36354;BME280;22383;51.114;13.666;2023-09-18T04:48:06;69088.25;;;17.19;100.00
36354;BME280;22383;51.114;13.666;2023-09-18T04:50:35;69097.78;;;17.26;100.00
36354;BME280;22383;51.114;13.666;2023-09-18T04:53:03;69078.19;;;17.13;100.00
36354;BME280;22383;51.114;13.666;2023-09-18T04:55:31;69071.91;;;17.07;100.00
36354;BME280;22383;51.114;13.666;2023-09-18T04:57:59;69077.84;;;17.08;100.00
36354;BME280;22383;51.114;13.666;2023-09-18T05:00:27;69069.84;;;17.00;100.00
36354;BME280;22383;51.114;13.666;2023-09-18T05:02:55;69080.66;;;17.10;100.00
36354;BME280;22383;51.114;13.666;2023-09-18T05:05:24;69067.19;;;17.00;100.00
36354;BME280;22383;51.114;13.666;2023-09-18T05:07:51;69073.44;;;17.06;100.00
36354;BME280;22383;51.114;13.666;2023-09-18T05:10:19;69054.50;;;17.11;100.00
36354;BME280;22383;51.114;13.666;2023-09-18T05:12:48;69081.41;;;17.13;100.00
36354;BME280;22383;51.114;13.666;2023-09-18T05:15:16;69081.97;;;17.14;100.00
36354;BME280;22383;51.114;13.666;2023-09-18T05:17:45;69092.63;;;17.21;100.00
36354;BME280;22383;51.114;13.666;2023-09-18T05:20:19;69083.31;;;17.17;100.00
36354;BME280;22383;51.114;13.666;2023-09-18T05:22:47;69105.75;;;17.33;100.00
36354;BME280;22383;51.114;13.666;2023-09-18T05:25:15;69105.75;;;17.33;100.00
36354;BME280;22383;51.114;13.666;2023-09-18T05:27:45;69103.63;;;17.33;100.00
36354;BME280;22383;51.114;13.666;2023-09-18T05:30:14;69111.44;;;17.38;100.00
36354;BME280;22383;51.114;13.666;2023-09-18T05:32:44;69110.47;;;17.39;100.00
36354;BME280;22383;51.114;13.666;2023-09-18T05:35:13;69110.28;;;17.37;100.00
36354;BME280;22383;51.114;13.666;2023-09-18T05:37:41;69113.72;;;17.40;100.00
36354;BME280;22383;51.114;13.666;2023-09-18T05:40:09;69115.59;;;17.44;100.00
36354;BME280;22383;51.114;13.666;2023-09-18T05:42:38;69119.78;;;17.50;100.00
36354;BME280;22383;51.114;13.666;2023-09-18T05:45:13;69123.59;;;17.51;100.00
36354;BME280;22383;51.114;13.666;2023-09-18T05:47:42;69148.69;;;17.67;100.00
36354;BME280;22383;51.114;13.666;2023-09-18T05:50:11;69136.13;;;17.63;100.00
36354;BME280;22383;51.114;13.666;2023-09-18T05:52:43;69133.84;;;17.61;100.00
36354;BME280;22383;51.114;13.666;2023-09-18T05:55:11;69144.09;;;17.70;100.00
36354;BME280;22383;51.114;13.666;2023-09-18T05:57:39;69141.81;;;17.68;100.00
36354;BME280;22383;51.114;13.666;2023-09-18T06:00:07;69145.81;;;17.71;100.00
36354;BME280;22383;51.114;13.666;2023-09-18T06:02:40;69151.69;;;17.79;100.00
36354;BME280;22383;51.114;13.666;2023-09-18T06:05:08;69164.28;;;17.83;100.00
36354;BME280;22383;51.114;13.666;2023-09-18T06:07:39;69157.78;;;17.82;100.00
36354;BME280;22383;51.114;13.666;2023-09-18T06:10:06;69160.06;;;17.84;100.00
36354;BME280;22383;51.114;13.666;2023-09-18T06:12:34;69161.97;;;17.88;100.00
36354;BME280;22383;51.114;13.666;2023-09-18T06:15:01;69170.34;;;17.93;100.00
36354;BME280;22383;51.114;13.666;2023-09-18T06:17:28;69187.28;;;18.06;100.00
36354;BME280;22383;51.114;13.666;2023-09-18T06:19:56;69196.00;;;18.17;100.00
36354;BME280;22383;51.114;13.666;2023-09-18T06:22:23;69194.69;;;18.13;100.00
36354;BME280;22383;51.114;13.666;2023-09-18T06:24:50;69201.13;;;18.21;100.00
36354;BME280;22383;51.114;13.666;2023-09-18T06:27:18;69225.47;;;18.41;100.00
36354;BME280;22383;51.114;13.666;2023-09-18T06:29:45;69228.88;;;18.44;100.00
36354;BME280;22383;51.114;13.666;2023-09-18T06:32:13;69247.94;;;18.56;100.00
36354;BME280;22383;51.114;13.666;2023-09-18T06:34:40;69238.19;;;18.55;100.00
36354;BME280;22383;51.114;13.666;2023-09-18T06:37:10;69251.31;;;18.66;100.00
36354;BME280;22383;51.114;13.666;2023-09-18T06:39:39;69251.69;;;18.64;100.00
36354;BME280;22383;51.114;13.666;2023-09-18T06:42:06;69251.31;;;18.66;100.00
36354;BME280;22383;51.114;13.666;2023-09-18T06:44:34;69248.47;;;18.64;100.00
36354;BME280;22383;51.114;13.666;2023-09-18T06:47:01;69247.50;;;18.65;100.00
36354;BME280;22383;51.114;13.666;2023-09-18T06:49:28;69256.44;;;18.71;100.00
36354;BME280;22383;51.114;13.666;2023-09-18T06:51:56;69256.59;;;18.74;100.00
36354;BME280;22383;51.114;13.666;2023-09-18T06:54:23;69285.97;;;18.95;100.00
36354;BME280;22383;51.114;13.666;2023-09-18T06:56:50;69290.13;;;19.01;100.00
36354;BME280;22383;51.114;13.666;2023-09-18T06:59:18;69264.25;;;19.00;100.00
36354;BME280;22383;51.114;13.666;2023-09-18T07:01:45;69307.06;;;19.14;100.00
36354;BME280;22383;51.114;13.666;2023-09-18T07:04:12;69316.38;;;19.25;100.00
36354;BME280;22383;51.114;13.666;2023-09-18T07:06:40;69325.88;;;19.31;100.00
36354;BME280;22383;51.114;13.666;2023-09-18T07:09:07;69334.06;;;19.41;100.00
36354;BME280;22383;51.114;13.666;2023-09-18T07:11:39;69344.13;;;19.48;100.00
36354;BME280;22383;51.114;13.666;2023-09-18T07:14:06;69360.84;;;19.65;100.00
36354;BME280;22383;51.114;13.666;2023-09-18T07:16:33;69377.44;;;19.80;100.00
36354;BME280;22383;51.114;13.666;2023-09-18T07:19:01;69393.09;;;19.89;100.00
36354;BME280;22383;51.114;13.666;2023-09-18T07:21:31;69380.28;;;19.82;100.00
36354;BME280;22383;51.114;13.666;2023-09-18T07:23:59;69395.53;;;19.94;100.00
36354;BME280;22383;51.114;13.666;2023-09-18T07:26:26;69394.56;;;19.95;100.00
36354;BME280;22383;51.114;13.666;2023-09-18T07:28:53;69366.97;;;19.92;100.00
36354;BME280;22383;51.114;13.666;2023-09-18T07:31:21;69413.41;;;20.12;100.00
36354;BME280;22383;51.114;13.666;2023-09-18T07:33:49;69419.50;;;20.15;100.00
36354;BME280;22383;51.114;13.666;2023-09-18T07:36:16;69425.56;;;20.26;100.00
36354;BME280;22383;51.114;13.666;2023-09-18T07:38:45;69428.81;;;20.26;100.00
36354;BME280;22383;51.114;13.666;2023-09-18T07:41:12;69434.53;;;20.31;100.00
36354;BME280;22383;51.114;13.666;2023-09-18T07:43:42;69434.13;;;20.33;100.00
36354;BME280;22383;51.114;13.666;2023-09-18T07:46:09;69453.94;;;20.49;100.00
36354;BME280;22383;51.114;13.666;2023-09-18T07:48:37;69457.72;;;20.57;100.00
36354;BME280;22383;51.114;13.666;2023-09-18T07:51:04;69477.78;;;20.68;100.00
36354;BME280;22383;51.114;13.666;2023-09-18T07:53:32;69477.38;;;20.70;100.00
36354;BME280;22383;51.114;13.666;2023-09-18T07:55:59;69492.22;;;20.83;100.00
36354;BME280;22383;51.114;13.666;2023-09-18T07:58:31;69504.78;;;20.94;100.00
36354;BME280;22383;51.114;13.666;2023-09-18T08:01:00;69523.66;;;21.11;100.00
36354;BME280;22383;51.114;13.666;2023-09-18T08:03:27;69516.78;;;21.05;100.00
36354;BME280;22383;51.114;13.666;2023-09-18T08:05:55;69528.81;;;21.16;100.00
36354;BME280;22383;51.114;13.666;2023-09-18T08:08:24;69547.91;;;21.28;100.00
36354;BME280;22383;51.114;13.666;2023-09-18T08:10:52;69558.84;;;21.65;100.00
36354;BME280;22383;51.114;13.666;2023-09-18T08:13:19;69587.81;;;21.71;100.00
36354;BME280;22383;51.114;13.666;2023-09-18T08:15:46;69608.66;;;21.85;100.00
36354;BME280;22383;51.114;13.666;2023-09-18T08:18:14;69642.97;;;22.16;100.00
36354;BME280;22383;51.114;13.666;2023-09-18T08:20:43;69649.97;;;22.25;100.00
36354;BME280;22383;51.114;13.666;2023-09-18T08:23:11;69638.53;;;22.15;100.00
36354;BME280;22383;51.114;13.666;2023-09-18T08:25:38;69645.81;;;22.19;100.00
36354;BME280;22383;51.114;13.666;2023-09-18T08:28:07;69604.09;;;21.81;100.00
36354;BME280;22383;51.114;13.666;2023-09-18T08:30:36;69628.25;;;22.05;100.00
36354;BME280;22383;51.114;13.666;2023-09-18T08:33:06;69661.44;;;22.35;100.00
36354;BME280;22383;51.114;13.666;2023-09-18T08:35:33;69676.47;;;22.51;100.00
36354;BME280;22383;51.114;13.666;2023-09-18T08:38:01;69703.59;;;22.71;100.00
36354;BME280;22383;51.114;13.666;2023-09-18T08:40:28;69726.78;;;22.96;100.00
36354;BME280;22383;51.114;13.666;2023-09-18T08:42:55;69751.81;;;23.16;100.00
36354;BME280;22383;51.114;13.666;2023-09-18T08:45:31;69770.69;;;23.33;100.00
36354;BME280;22383;51.114;13.666;2023-09-18T08:48:02;69767.53;;;23.52;100.00
36354;BME280;22383;51.114;13.666;2023-09-18T08:50:30;69817.22;;;23.77;100.00
36354;BME280;22383;51.114;13.666;2023-09-18T08:52:58;69843.97;;;23.99;100.00
36354;BME280;22383;51.114;13.666;2023-09-18T08:55:26;69857.69;;;24.11;100.00
36354;BME280;22383;51.114;13.666;2023-09-18T08:57:55;69847.09;;;24.24;100.00
36354;BME280;22383;51.114;13.666;2023-09-18T09:00:24;69846.53;;;24.23;100.00
36354;BME280;22383;51.114;13.666;2023-09-18T09:02:51;69850.44;;;24.07;100.00
36354;BME280;22383;51.114;13.666;2023-09-18T09:05:21;69855.97;;;24.10;100.00
36354;BME280;22383;51.114;13.666;2023-09-18T09:07:50;69873.72;;;24.26;100.00
36354;BME280;22383;51.114;13.666;2023-09-18T09:10:18;69858.25;;;24.12;100.00
36354;BME280;22383;51.114;13.666;2023-09-18T09:12:48;69863.25;;;24.14;100.00
36354;BME280;22383;51.114;13.666;2023-09-18T09:15:16;69852.53;;;24.07;100.00
36354;BME280;22383;51.114;13.666;2023-09-18T09:17:43;69828.50;;;23.85;100.00
36354;BME280;22383;51.114;13.666;2023-09-18T09:20:15;69827.94;;;23.85;100.00
36354;BME280;22383;51.114;13.666;2023-09-18T09:22:42;69823.94;;;23.81;100.00
36354;BME280;22383;51.114;13.666;2023-09-18T09:25:27;69847.97;;;24.03;100.00
36354;BME280;22383;51.114;13.666;2023-09-18T09:27:55;69849.84;;;24.07;100.00
36354;BME280;22383;51.114;13.666;2023-09-18T09:30:25;69871.59;;;24.26;100.00
36354;BME280;22383;51.114;13.666;2023-09-18T09:32:55;69906.38;;;24.55;100.00
36354;BME280;22383;51.114;13.666;2023-09-18T09:35:34;69906.38;;;24.55;100.00
36354;BME280;22383;51.114;13.666;2023-09-18T09:40:39;69901.50;;;24.72;100.00
36354;BME280;22383;51.114;13.666;2023-09-18T09:43:08;69937.88;;;24.83;100.00
36354;BME280;22383;51.114;13.666;2023-09-18T09:45:36;69956.19;;;25.00;100.00
36354;BME280;22383;51.114;13.666;2023-09-18T09:48:05;69958.66;;;25.04;100.00
36354;BME280;22383;51.114;13.666;2023-09-18T09:50:44;69986.03;;;25.26;100.00
36354;BME280;22383;51.114;13.666;2023-09-18T09:53:14;69981.41;;;25.22;100.00
36354;BME280;22383;51.114;13.666;2023-09-18T09:55:41;69985.44;;;25.26;100.00
36354;BME280;22383;51.114;13.666;2023-09-18T09:58:10;69985.59;;;25.28;100.00
36354;BME280;22383;51.114;13.666;2023-09-18T10:00:46;69974.53;;;25.16;100.00
36354;BME280;22383;51.114;13.666;2023-09-18T10:03:19;69984.44;;;25.27;100.00
36354;BME280;22383;51.114;13.666;2023-09-18T10:05:50;69989.28;;;25.27;100.00
36354;BME280;22383;51.114;13.666;2023-09-18T10:08:23;70014.81;;;25.55;99.53
36354;BME280;22383;51.114;13.666;2023-09-18T10:10:54;69997.72;;;25.59;98.66
36354;BME280;22383;51.114;13.666;2023-09-18T10:13:41;70010.22;;;25.51;98.23
36354;BME280;22383;51.114;13.666;2023-09-18T10:16:11;70013.09;;;25.53;97.55
36354;BME280;22383;51.114;13.666;2023-09-18T10:24:22;70011.38;;;25.52;100.00
36354;BME280;22383;51.114;13.666;2023-09-18T10:26:55;70036.41;;;25.72;95.77
36354;BME280;22383;51.114;13.666;2023-09-18T10:29:26;70051.47;;;25.88;95.76
36354;BME280;22383;51.114;13.666;2023-09-18T10:31:55;70083.28;;;26.11;94.33
36354;BME280;22383;51.114;13.666;2023-09-18T10:34:23;70069.34;;;26.23;95.29
36354;BME280;22383;51.114;13.666;2023-09-18T10:36:54;70102.91;;;26.31;95.44
36354;BME280;22383;51.114;13.666;2023-09-18T10:39:24;70126.59;;;26.55;95.47
36354;BME280;22383;51.114;13.666;2023-09-18T10:41:54;70082.44;;;26.15;92.84
36354;BME280;22383;51.114;13.666;2023-09-18T10:44:23;70020.63;;;25.79;92.75
36354;BME280;22383;51.114;13.666;2023-09-18T10:46:51;70045.75;;;25.82;93.84
36354;BME280;22383;51.114;13.666;2023-09-18T10:49:20;70033.56;;;25.69;94.04
36354;BME280;22383;51.114;13.666;2023-09-18T10:51:48;70021.53;;;25.58;95.64
36354;BME280;22383;51.114;13.666;2023-09-18T10:54:17;70012.22;;;25.47;95.45
36354;BME280;22383;51.114;13.666;2023-09-18T10:56:47;69993.44;;;25.33;95.73
36354;BME280;22383;51.114;13.666;2023-09-18T10:59:16;69984.69;;;25.23;96.12
36354;BME280;22383;51.114;13.666;2023-09-18T11:01:48;69952.47;;;25.18;97.52
36354;BME280;22383;51.114;13.666;2023-09-18T11:04:20;69942.72;;;25.09;98.17
36354;BME280;22383;51.114;13.666;2023-09-18T11:09:26;69968.25;;;25.10;97.98
36354;BME280;22383;51.114;13.666;2023-09-18T11:12:02;69977.41;;;25.19;97.49
36354;BME280;22383;51.114;13.666;2023-09-18T11:14:50;69967.81;;;25.13;98.48
36354;BME280;22383;51.114;13.666;2023-09-18T11:17:37;69976.41;;;25.20;99.07
36354;BME280;22383;51.114;13.666;2023-09-18T11:22:57;69934.44;;;24.80;99.20
36354;BME280;22383;51.114;13.666;2023-09-18T11:25:39;69928.16;;;24.75;100.00
36354;BME280;22383;51.114;13.666;2023-09-18T11:28:14;69934.44;;;24.80;100.00
36354;BME280;22383;51.114;13.666;2023-09-18T11:30:50;69937.72;;;24.81;100.00
36354;BME280;22383;51.114;13.666;2023-09-18T11:33:33;69970.78;;;25.08;100.00
36354;BME280;22383;51.114;13.666;2023-09-18T11:38:55;70010.91;;;25.71;100.00
36354;BME280;22383;51.114;13.666;2023-09-18T11:41:27;70062.38;;;25.97;98.33
36354;BME280;22383;51.114;13.666;2023-09-18T11:46:34;70093.34;;;26.25;90.90
36354;BME280;22383;51.114;13.666;2023-09-18T11:49:02;70102.22;;;26.28;90.49
36354;BME280;22383;51.114;13.666;2023-09-18T11:51:32;70100.22;;;26.31;92.23
36354;BME280;22383;51.114;13.666;2023-09-18T11:54:00;70087.69;;;26.39;90.72
36354;BME280;22383;51.114;13.666;2023-09-18T11:56:28;70148.81;;;26.72;93.87
36354;BME280;22383;51.114;13.666;2023-09-18T11:58:55;70181.91;;;27.00;90.92
36354;BME280;22383;51.114;13.666;2023-09-18T12:01:22;70213.22;;;27.32;89.21
36354;BME280;22383;51.114;13.666;2023-09-18T12:04:00;70249.78;;;27.63;84.71
36354;BME280;22383;51.114;13.666;2023-09-18T12:06:28;70277.47;;;27.90;84.23
36354;BME280;22383;51.114;13.666;2023-09-18T12:08:55;70275.81;;;28.08;85.94
36354;BME280;22383;51.114;13.666;2023-09-18T12:11:23;70308.50;;;28.37;86.57
36354;BME280;22383;51.114;13.666;2023-09-18T12:13:51;70355.56;;;28.60;79.00
36354;BME280;22383;51.114;13.666;2023-09-18T12:16:19;70364.59;;;28.65;78.97
36354;BME280;22383;51.114;13.666;2023-09-18T12:18:46;70358.44;;;28.82;81.28
36354;BME280;22383;51.114;13.666;2023-09-18T12:21:16;70341.25;;;28.66;78.70
36354;BME280;22383;51.114;13.666;2023-09-18T12:23:45;70328.00;;;28.35;77.60
36354;BME280;22383;51.114;13.666;2023-09-18T12:26:14;70299.16;;;28.07;80.27
36354;BME280;22383;51.114;13.666;2023-09-18T12:28:43;70237.94;;;27.74;78.81
36354;BME280;22383;51.114;13.666;2023-09-18T12:31:14;70219.00;;;27.57;83.00
36354;BME280;22383;51.114;13.666;2023-09-18T12:33:43;70216.72;;;27.55;84.73
36354;BME280;22383;51.114;13.666;2023-09-18T12:36:11;70227.97;;;27.43;81.30
36354;BME280;22383;51.114;13.666;2023-09-18T12:38:41;70233.28;;;27.50;82.27
36354;BME280;22383;51.114;13.666;2023-09-18T12:41:11;70213.78;;;27.33;84.81
36354;BME280;22383;51.114;13.666;2023-09-18T12:43:41;70181.72;;;27.24;83.24
36354;BME280;22383;51.114;13.666;2023-09-18T12:46:09;70199.28;;;27.17;83.69
36354;BME280;22383;51.114;13.666;2023-09-18T12:48:38;70206.72;;;27.24;87.05
36354;BME280;22383;51.114;13.666;2023-09-18T12:51:06;70209.59;;;27.27;83.91
36354;BME280;22383;51.114;13.666;2023-09-18T12:53:33;70193.69;;;27.15;82.81
36354;BME280;22383;51.114;13.666;2023-09-18T12:56:19;70194.13;;;27.13;84.72
36354;BME280;22383;51.114;13.666;2023-09-18T12:58:46;70187.97;;;27.10;85.10
36354;BME280;22383;51.114;13.666;2023-09-18T13:01:33;70179.38;;;27.02;85.73
36354;BME280;22383;51.114;13.666;2023-09-18T13:04:00;70175.78;;;26.96;85.21
36354;BME280;22383;51.114;13.666;2023-09-18T13:06:33;70174.63;;;26.95;93.08
36354;BME280;22383;51.114;13.666;2023-09-18T13:09:17;70139.28;;;26.86;94.99
36354;BME280;22383;51.114;13.666;2023-09-18T13:11:55;70133.16;;;26.56;93.84